createdAt,value
2022-09-10T00:14:29.819Z,14.68
2022-09-10T00:31:18.265Z,14.73
2022-09-10T00:48:15.600Z,14.58
2022-09-10T01:05:07.622Z,14.59
2022-09-10T01:22:06.904Z,14.63
2022-09-10T01:38:57.465Z,14.49
2022-09-10T01:55:54.210Z,14.37
2022-09-10T02:12:44.795Z,14.32
2022-09-10T02:29:36.914Z,14.33
2022-09-10T02:46:25.194Z,14.28
2022-09-10T03:03:14.855Z,14.11
2022-09-10T03:20:03.413Z,14.10
2022-09-10T03:36:51.762Z,14.01
2022-09-10T03:53:42.316Z,14.02
2022-09-10T04:10:31.461Z,14.06
2022-09-10T04:27:19.858Z,14.17
2022-09-10T04:44:09.125Z,14.16
2022-09-10T05:00:57.929Z,14.12
2022-09-10T05:17:48.010Z,14.01
2022-09-10T05:34:36.153Z,14.13
2022-09-10T05:51:28.087Z,14.13
2022-09-10T06:08:16.803Z,14.15
2022-09-10T06:25:08.130Z,14.20
2022-09-10T06:41:56.858Z,14.10
2022-09-10T06:58:45.952Z,14.17
2022-09-10T07:15:35.065Z,14.20
2022-09-10T07:32:23.206Z,14.29
2022-09-10T07:49:14.669Z,14.16
2022-09-10T08:06:06.116Z,14.29
2022-09-10T08:22:58.602Z,14.26
2022-09-10T08:39:47.932Z,14.29
2022-09-10T08:56:36.311Z,14.42
2022-09-10T09:13:50.766Z,14.40
2022-09-10T09:30:49.664Z,14.44
2022-09-10T09:47:39.833Z,14.46
2022-09-10T10:04:31.633Z,14.47
2022-09-10T10:21:23.635Z,14.62
2022-09-10T10:38:25.477Z,14.74
2022-09-10T10:55:24.787Z,14.82
2022-09-10T11:12:18.440Z,14.84
2022-09-10T11:29:22.762Z,14.77
2022-09-10T11:46:14.701Z,14.77
2022-09-10T12:03:22.473Z,14.75
2022-09-10T12:20:21.518Z,14.88
2022-09-10T12:37:29.003Z,14.98
2022-09-10T12:54:34.324Z,14.94
2022-09-10T13:11:25.385Z,14.96
2022-09-10T13:28:49.064Z,14.97
2022-09-10T13:45:44.368Z,14.92
2022-09-10T14:02:50.970Z,14.94
2022-09-10T14:19:44.981Z,14.81
2022-09-10T14:36:37.292Z,14.90
2022-09-10T14:53:25.753Z,15.05
2022-09-10T15:10:15.665Z,15.12
2022-09-10T15:27:04.874Z,15.15
2022-09-10T15:43:53.570Z,15.00
2022-09-10T16:00:42.619Z,14.98
2022-09-10T16:17:32.091Z,14.90
2022-09-10T16:34:22.453Z,15.00
2022-09-10T16:51:13.135Z,14.97
2022-09-10T17:08:01.588Z,14.96
2022-09-10T17:24:51.406Z,14.79
2022-09-10T17:41:40.803Z,14.74
2022-09-10T17:58:29.149Z,14.63
2022-09-10T18:15:17.527Z,14.52
2022-09-10T18:32:07.611Z,14.51
2022-09-10T18:48:59.683Z,14.56
2022-09-10T19:05:50.058Z,14.48
2022-09-10T19:22:38.633Z,14.41
2022-09-10T19:39:27.918Z,14.53
2022-09-10T19:56:20.812Z,14.63
2022-09-10T20:13:10.237Z,14.65
2022-09-10T20:29:58.676Z,14.53
2022-09-10T20:46:47.384Z,14.47
2022-09-10T21:03:35.663Z,14.28
2022-09-10T21:20:24.722Z,14.20
2022-09-10T21:37:15.162Z,14.13
2022-09-10T21:54:08.022Z,14.22
2022-09-10T22:11:00.853Z,14.06
2022-09-10T22:27:52.887Z,13.94
2022-09-10T22:44:42.231Z,13.97
2022-09-10T23:01:32.464Z,13.84
2022-09-10T23:18:20.771Z,13.77
2022-09-10T23:35:11.437Z,13.78
2022-09-10T23:52:00.046Z,13.71
